createdAt,value
2022-10-17T00:01:01.031Z,102130.94
2022-10-17T00:03:28.241Z,102142.31
2022-10-17T00:05:56.133Z,102145.50
2022-10-17T00:08:24.676Z,102123.16
2022-10-17T00:11:02.903Z,102138.25
2022-10-17T00:13:30.925Z,102128.22
2022-10-17T00:15:58.576Z,102145.53
2022-10-17T00:18:25.882Z,102139.69
2022-10-17T00:20:53.063Z,102128.41
2022-10-17T00:23:20.195Z,102135.72
2022-10-17T00:25:47.552Z,102131.19
2022-10-17T00:28:16.011Z,102142.63
2022-10-17T00:30:43.372Z,102137.06
2022-10-17T00:33:10.522Z,102122.25
2022-10-17T00:35:38.562Z,102145.94
2022-10-17T00:38:06.006Z,102155.47
2022-10-17T00:40:33.154Z,102135.06
2022-10-17T00:43:00.344Z,102104.78
2022-10-17T00:45:30.012Z,102115.59
2022-10-17T00:48:09.976Z,102109.28
2022-10-17T00:50:40.916Z,102083.19
2022-10-17T00:53:09.577Z,102100.56
2022-10-17T00:55:48.956Z,102100.06
2022-10-17T00:58:17.087Z,102120.81
2022-10-17T01:00:46.361Z,102111.88
2022-10-17T01:03:16.727Z,102111.22
2022-10-17T01:05:44.385Z,102118.38
2022-10-17T01:08:12.522Z,102123.44
2022-10-17T01:10:54.841Z,102129.50
2022-10-17T01:13:42.615Z,102124.38
2022-10-17T01:16:36.303Z,102114.59
2022-10-17T01:19:48.660Z,102115.56
2022-10-17T01:23:01.815Z,102106.06
2022-10-17T01:26:06.570Z,102119.78
2022-10-17T01:28:40.052Z,102130.53
2022-10-17T01:31:20.603Z,102137.72
2022-10-17T01:33:54.181Z,102136.78
2022-10-17T01:36:40.451Z,102124.72
2022-10-17T01:39:12.373Z,102108.06
2022-10-17T01:42:10.461Z,102124.88
2022-10-17T01:44:47.983Z,102132.44
2022-10-17T01:47:19.965Z,102123.69
2022-10-17T01:49:50.963Z,102121.31
2022-10-17T01:52:27.500Z,102123.09
2022-10-17T01:55:15.362Z,102128.56
2022-10-17T01:57:48.593Z,102113.75
2022-10-17T02:00:21.217Z,102111.97
2022-10-17T02:02:58.644Z,102116.44
2022-10-17T02:05:31.427Z,102118.38
2022-10-17T02:07:58.778Z,102093.06
2022-10-17T02:10:57.849Z,102112.97
2022-10-17T02:14:02.304Z,102125.38
2022-10-17T02:16:38.363Z,102112.94
2022-10-17T02:19:11.624Z,102135.66
2022-10-17T02:21:41.793Z,102113.84
2022-10-17T02:24:22.247Z,102111.88
2022-10-17T02:27:34.726Z,102126.63
2022-10-17T02:30:25.390Z,102118.25
2022-10-17T02:33:02.415Z,102133.84
2022-10-17T02:35:35.079Z,102133.78
2022-10-17T02:38:04.111Z,102138.41
2022-10-17T02:40:32.573Z,102154.66
2022-10-17T02:43:03.628Z,102151.38
2022-10-17T02:45:36.126Z,102138.38
2022-10-17T02:48:20.682Z,102162.03
2022-10-17T02:50:54.382Z,102166.50
2022-10-17T02:53:38.216Z,102133.31
2022-10-17T02:56:15.145Z,102162.28
2022-10-17T02:58:46.438Z,102175.84
2022-10-17T03:01:15.994Z,102158.69
2022-10-17T03:03:43.725Z,102160.13
2022-10-17T03:06:11.207Z,102161.47
2022-10-17T03:08:39.455Z,102176.19
2022-10-17T03:11:06.960Z,102164.13
2022-10-17T03:13:36.327Z,102173.31
2022-10-17T03:16:07.463Z,102185.03
2022-10-17T03:18:34.808Z,102181.50
2022-10-17T03:21:04.490Z,102173.09
2022-10-17T03:23:33.235Z,102193.00
2022-10-17T03:26:06.430Z,102197.84
2022-10-17T03:28:35.837Z,102181.03
2022-10-17T03:31:11.333Z,102189.50
2022-10-17T03:33:39.344Z,102176.94
2022-10-17T03:36:12.638Z,102174.38
2022-10-17T03:38:42.248Z,102178.16
2022-10-17T03:41:09.946Z,102176.94
2022-10-17T03:43:40.044Z,102193.38
2022-10-17T03:46:08.537Z,102186.72
2022-10-17T03:48:37.529Z,102176.94
2022-10-17T03:51:08.870Z,102188.28
2022-10-17T03:53:42.520Z,102175.88
2022-10-17T03:56:30.094Z,102195.06
2022-10-17T03:59:02.326Z,102170.75
2022-10-17T04:01:32.152Z,102180.19
2022-10-17T04:04:00.642Z,102188.66
2022-10-17T04:06:32.000Z,102192.50
2022-10-17T04:09:00.239Z,102178.25
2022-10-17T04:11:34.265Z,102193.25
2022-10-17T04:14:03.461Z,102194.69
2022-10-17T04:16:33.679Z,102199.78
2022-10-17T04:19:05.094Z,102215.38
2022-10-17T04:21:39.327Z,102210.75
2022-10-17T04:24:12.156Z,102228.66
2022-10-17T04:26:58.840Z,102207.88
2022-10-17T04:29:30.199Z,102216.78
2022-10-17T04:32:05.932Z,102212.91
2022-10-17T04:34:43.874Z,102213.53
2022-10-17T04:37:11.459Z,102227.88
2022-10-17T04:39:39.625Z,102225.00
2022-10-17T04:42:06.919Z,102239.59
2022-10-17T04:44:39.861Z,102242.16
2022-10-17T04:47:08.858Z,102242.63
2022-10-17T04:49:36.033Z,102248.91
2022-10-17T04:52:09.313Z,102236.34
2022-10-17T04:54:44.190Z,102250.81
2022-10-17T04:57:13.641Z,102258.09
2022-10-17T04:59:46.620Z,102270.44
2022-10-17T05:02:20.983Z,102257.38
2022-10-17T05:04:49.679Z,102253.38
2022-10-17T05:07:17.130Z,102261.56
2022-10-17T05:09:48.999Z,102251.78
2022-10-17T05:12:18.248Z,102262.91
2022-10-17T05:14:46.816Z,102275.72
2022-10-17T05:17:14.621Z,102282.97
2022-10-17T05:19:41.772Z,102282.38
2022-10-17T05:22:10.019Z,102286.22
2022-10-17T05:24:37.724Z,102279.69
2022-10-17T05:27:04.825Z,102287.81
2022-10-17T05:29:32.211Z,102310.81
2022-10-17T05:32:14.837Z,102295.03
2022-10-17T05:34:42.082Z,102308.13
2022-10-17T05:37:09.364Z,102297.25
2022-10-17T05:39:36.806Z,102309.28
2022-10-17T05:42:05.005Z,102287.38
2022-10-17T05:44:33.825Z,102291.28
2022-10-17T05:47:01.299Z,102292.38
2022-10-17T05:49:46.044Z,102301.22
2022-10-17T05:52:16.939Z,102294.53
2022-10-17T05:54:56.855Z,102297.84
2022-10-17T05:57:27.656Z,102322.44
2022-10-17T05:59:55.291Z,102308.88
2022-10-17T06:02:22.766Z,102296.97
2022-10-17T06:04:50.472Z,102298.72
2022-10-17T06:07:20.272Z,102304.50
2022-10-17T06:09:48.596Z,102298.47
2022-10-17T06:12:15.711Z,102299.75
2022-10-17T06:14:44.163Z,102295.72
2022-10-17T06:17:16.010Z,102292.25
2022-10-17T06:19:47.846Z,102289.88
2022-10-17T06:22:16.027Z,102288.19
2022-10-17T06:24:43.772Z,102290.72
2022-10-17T06:27:12.248Z,102290.34
2022-10-17T06:29:41.294Z,102298.88
2022-10-17T06:32:11.270Z,102288.66
2022-10-17T06:34:42.375Z,102298.75
2022-10-17T06:37:10.093Z,102303.66
2022-10-17T06:39:39.305Z,102308.31
2022-10-17T06:42:11.899Z,102291.22
2022-10-17T06:44:59.257Z,102295.28
2022-10-17T06:47:45.500Z,102294.94
2022-10-17T06:50:32.945Z,102300.41
2022-10-17T06:53:22.527Z,102301.19
2022-10-17T06:56:09.224Z,102305.13
2022-10-17T06:58:47.792Z,102312.59
2022-10-17T07:01:31.974Z,102323.00
2022-10-17T07:04:00.730Z,102310.78
2022-10-17T07:06:29.466Z,102313.44
2022-10-17T07:09:01.234Z,102313.25
2022-10-17T07:11:28.942Z,102318.03
2022-10-17T07:13:56.024Z,102307.31
2022-10-17T07:16:23.590Z,102319.13
2022-10-17T07:18:59.122Z,102303.16
2022-10-17T07:21:26.474Z,102308.13
2022-10-17T07:23:53.635Z,102293.50
2022-10-17T07:26:21.502Z,102296.16
2022-10-17T07:28:56.218Z,102302.38
2022-10-17T07:31:50.091Z,102302.25
2022-10-17T07:34:18.645Z,102299.03
2022-10-17T07:36:46.505Z,102299.66
2022-10-17T07:39:15.268Z,102298.59
2022-10-17T07:41:42.552Z,102315.44
2022-10-17T07:44:09.745Z,102290.78
2022-10-17T07:46:42.933Z,102284.66
2022-10-17T07:49:10.251Z,102285.25
2022-10-17T07:51:37.598Z,102287.91
2022-10-17T07:54:06.578Z,102283.78
2022-10-17T07:56:33.853Z,102280.75
2022-10-17T07:59:03.788Z,102286.97
2022-10-17T08:01:33.931Z,102279.63
2022-10-17T08:04:01.440Z,102278.81
2022-10-17T08:06:28.648Z,102281.38
2022-10-17T08:08:56.008Z,102285.59
2022-10-17T08:11:23.444Z,102282.28
2022-10-17T08:13:50.652Z,102278.69
2022-10-17T08:16:17.920Z,102280.16
2022-10-17T08:18:45.332Z,102275.09
2022-10-17T08:21:13.585Z,102287.47
2022-10-17T08:23:40.951Z,102272.34
2022-10-17T08:26:10.984Z,102289.13
2022-10-17T08:28:40.062Z,102280.72
2022-10-17T08:31:13.661Z,102281.53
2022-10-17T08:33:42.236Z,102289.13
2022-10-17T08:36:16.326Z,102288.56
2022-10-17T08:38:45.461Z,102290.03
2022-10-17T08:41:19.439Z,102286.66
2022-10-17T08:44:03.458Z,102290.34
2022-10-17T08:46:37.869Z,102292.03
2022-10-17T08:49:20.121Z,102295.16
2022-10-17T08:52:02.748Z,102290.97
2022-10-17T08:54:45.935Z,102291.00
2022-10-17T08:57:15.683Z,102284.28
2022-10-17T08:59:45.009Z,102294.94
2022-10-17T09:02:24.315Z,102285.38
2022-10-17T09:05:16.279Z,102287.63
2022-10-17T09:07:46.484Z,102289.59
2022-10-17T09:10:35.042Z,102278.91
2022-10-17T09:13:27.463Z,102288.75
2022-10-17T09:16:07.598Z,102270.25
2022-10-17T09:18:42.794Z,102275.84
2022-10-17T09:21:33.689Z,102269.13
2022-10-17T09:24:15.844Z,102269.38
2022-10-17T09:26:46.009Z,102261.53
2022-10-17T09:29:19.276Z,102265.44
2022-10-17T09:32:18.126Z,102267.94
2022-10-17T09:34:47.168Z,102246.84
2022-10-17T09:37:16.527Z,102254.94
2022-10-17T09:39:45.045Z,102260.28
2022-10-17T09:42:21.885Z,102258.81
2022-10-17T09:45:05.881Z,102262.72
2022-10-17T09:48:01.610Z,102257.00
2022-10-17T09:50:32.844Z,102232.56
2022-10-17T09:53:08.796Z,102235.09
2022-10-17T09:55:43.470Z,102243.50
2022-10-17T09:58:11.690Z,102236.63
2022-10-17T10:00:41.675Z,102241.09
2022-10-17T10:03:24.162Z,102236.94
2022-10-17T10:06:02.714Z,102234.00
2022-10-17T10:08:33.219Z,102244.81
2022-10-17T10:11:04.800Z,102230.59
2022-10-17T10:13:34.850Z,102232.38
2022-10-17T10:16:23.811Z,102237.16
2022-10-17T10:18:52.228Z,102226.00
2022-10-17T10:21:29.528Z,102234.69
2022-10-17T10:24:06.086Z,102217.47
2022-10-17T10:26:45.741Z,102223.88
2022-10-17T10:29:33.382Z,102204.81
2022-10-17T10:32:24.098Z,102221.88
2022-10-17T10:35:07.598Z,102213.25
2022-10-17T10:37:42.485Z,102219.44
2022-10-17T10:40:20.406Z,102215.44
2022-10-17T10:42:51.849Z,102208.09
2022-10-17T10:45:48.980Z,102205.38
2022-10-17T10:48:25.727Z,102204.25
2022-10-17T10:51:01.322Z,102204.53
2022-10-17T10:54:04.073Z,102197.72
2022-10-17T10:56:40.311Z,102207.16
2022-10-17T10:59:34.000Z,102196.94
2022-10-17T11:02:21.482Z,102191.47
2022-10-17T11:05:06.639Z,102199.03
2022-10-17T11:07:43.991Z,102196.63
2022-10-17T11:10:41.916Z,102197.44
2022-10-17T11:13:30.982Z,102193.50
2022-10-17T11:16:20.092Z,102190.69
2022-10-17T11:18:57.452Z,102188.91
2022-10-17T11:21:48.474Z,102190.69
2022-10-17T11:24:21.545Z,102201.19
2022-10-17T11:27:03.823Z,102198.28
2022-10-17T11:29:34.241Z,102194.63
2022-10-17T11:32:11.629Z,102200.66
2022-10-17T11:34:46.341Z,102203.03
2022-10-17T11:37:23.414Z,102201.28
2022-10-17T11:40:03.023Z,102203.81
2022-10-17T11:42:36.326Z,102178.16
2022-10-17T11:45:14.440Z,102195.53
2022-10-17T11:47:49.960Z,102192.91
2022-10-17T11:53:31.880Z,102189.81
2022-10-17T11:56:01.807Z,102198.19
2022-10-17T11:58:42.772Z,102193.63
2022-10-17T12:01:34.527Z,102184.22
2022-10-17T12:04:39.684Z,102193.56
2022-10-17T12:07:36.375Z,102189.84
2022-10-17T12:10:12.647Z,102187.47
2022-10-17T12:12:40.762Z,102177.72
2022-10-17T12:15:13.961Z,102179.53
2022-10-17T12:17:45.120Z,102180.81
2022-10-17T12:20:21.597Z,102189.34
2022-10-17T12:22:56.732Z,102183.44
2022-10-17T12:25:32.923Z,102180.72
2022-10-17T12:28:19.969Z,102182.78
2022-10-17T12:31:06.038Z,102195.00
2022-10-17T12:33:48.429Z,102184.84
2022-10-17T12:36:29.100Z,102200.91
2022-10-17T12:39:02.397Z,102199.19
2022-10-17T12:41:56.144Z,102181.44
2022-10-17T12:44:27.127Z,102193.78
2022-10-17T12:46:58.945Z,102189.38
2022-10-17T12:49:48.296Z,102190.03
2022-10-17T12:52:22.015Z,102198.00
2022-10-17T12:55:14.563Z,102199.69
2022-10-17T12:58:05.219Z,102214.91
2022-10-17T13:00:43.800Z,102200.13
2022-10-17T13:03:35.093Z,102193.66
2022-10-17T13:06:06.666Z,102202.81
2022-10-17T13:08:40.332Z,102195.09
2022-10-17T13:11:09.186Z,102160.19
2022-10-17T13:13:44.746Z,102190.38
2022-10-17T13:16:36.749Z,102209.19
2022-10-17T13:19:13.707Z,102206.13
2022-10-17T13:21:58.690Z,102194.88
2022-10-17T13:24:32.742Z,102208.34
2022-10-17T13:27:01.351Z,102214.03
2022-10-17T13:29:32.361Z,102196.38
2022-10-17T13:32:01.876Z,102191.06
2022-10-17T13:34:29.407Z,102202.88
2022-10-17T13:37:04.400Z,102210.75
2022-10-17T13:39:58.300Z,102209.63
2022-10-17T13:42:32.230Z,102212.44
2022-10-17T13:45:00.018Z,102215.25
2022-10-17T13:47:36.902Z,102208.78
2022-10-17T13:50:12.724Z,102206.56
2022-10-17T13:52:48.455Z,102207.94
2022-10-17T13:55:17.900Z,102199.00
2022-10-17T13:57:45.146Z,102205.16
2022-10-17T14:00:30.662Z,102205.72
2022-10-17T14:02:57.928Z,102206.56
2022-10-17T14:05:25.743Z,102202.09
2022-10-17T14:10:43.974Z,102210.31
2022-10-17T14:13:30.431Z,102208.28
2022-10-17T14:16:01.676Z,102195.75
2022-10-17T14:18:36.128Z,102208.91
2022-10-17T14:21:34.350Z,102213.19
2022-10-17T14:24:12.096Z,102209.88
2022-10-17T14:26:49.443Z,102204.56
2022-10-17T14:29:25.401Z,102213.84
2022-10-17T14:32:02.296Z,102218.59
2022-10-17T14:34:33.669Z,102191.44
2022-10-17T14:37:01.544Z,102178.31
2022-10-17T14:39:29.916Z,102200.50
2022-10-17T14:41:59.684Z,102211.75
2022-10-17T14:44:36.017Z,102213.44
2022-10-17T14:47:30.798Z,102220.19
2022-10-17T14:50:21.063Z,102219.06
2022-10-17T14:53:12.613Z,102215.13
2022-10-17T14:55:54.038Z,102203.94
2022-10-17T14:58:33.533Z,102206.75
2022-10-17T15:01:02.172Z,102214.91
2022-10-17T15:03:29.405Z,102211.28
2022-10-17T15:05:56.821Z,102207.94
2022-10-17T15:08:24.535Z,102221.97
2022-10-17T15:10:52.380Z,102233.19
2022-10-17T15:13:27.988Z,102230.66
2022-10-17T15:15:56.132Z,102230.38
2022-10-17T15:18:23.411Z,102237.13
2022-10-17T15:20:59.517Z,102240.22
2022-10-17T15:23:32.409Z,102250.03
2022-10-17T15:25:59.693Z,102241.88
2022-10-17T15:28:27.540Z,102250.03
2022-10-17T15:30:55.017Z,102253.38
2022-10-17T15:33:22.616Z,102253.13
2022-10-17T15:35:49.953Z,102242.69
2022-10-17T15:38:18.460Z,102259.53
2022-10-17T15:40:49.013Z,102258.13
2022-10-17T15:43:19.775Z,102266.25
2022-10-17T15:45:47.993Z,102266.25
2022-10-17T15:48:24.149Z,102260.38
2022-10-17T15:50:51.691Z,102255.31
2022-10-17T15:53:19.374Z,102263.16
2022-10-17T15:55:46.499Z,102262.31
2022-10-17T15:58:19.200Z,102275.22
2022-10-17T16:00:47.476Z,102281.66
2022-10-17T16:03:14.723Z,102277.16
2022-10-17T16:05:42.032Z,102282.19
2022-10-17T16:08:09.341Z,102287.22
2022-10-17T16:10:40.747Z,102278.53
2022-10-17T16:13:17.603Z,102265.84
2022-10-17T16:15:44.997Z,102271.19
2022-10-17T16:18:12.332Z,102266.72
2022-10-17T16:20:39.668Z,102275.97
2022-10-17T16:23:08.559Z,102273.44
2022-10-17T16:25:35.723Z,102249.31
2022-10-17T16:28:03.064Z,102255.50
2022-10-17T16:30:32.401Z,102239.81
2022-10-17T16:32:59.883Z,102232.25
2022-10-17T16:35:34.738Z,102249.38
2022-10-17T16:38:06.933Z,102260.31
2022-10-17T16:40:34.675Z,102254.69
2022-10-17T16:43:02.645Z,102256.94
2022-10-17T16:45:30.571Z,102257.50
2022-10-17T16:47:58.083Z,102263.66
2022-10-17T16:50:25.337Z,102255.81
2022-10-17T16:52:52.589Z,102260.00
2022-10-17T16:55:20.827Z,102237.56
2022-10-17T16:57:49.248Z,102247.63
2022-10-17T17:00:17.221Z,102258.03
2022-10-17T17:02:47.347Z,102250.44
2022-10-17T17:05:14.806Z,102248.47
2022-10-17T17:07:41.927Z,102253.53
2022-10-17T17:10:09.882Z,102253.53
2022-10-17T17:12:37.238Z,102267.25
2022-10-17T17:15:06.877Z,102279.84
2022-10-17T17:17:50.222Z,102274.19
2022-10-17T17:20:20.294Z,102277.84
2022-10-17T17:22:47.681Z,102281.75
2022-10-17T17:25:14.971Z,102280.63
2022-10-17T17:27:42.127Z,102273.31
2022-10-17T17:30:09.633Z,102270.50
2022-10-17T17:32:36.829Z,102270.53
2022-10-17T17:35:04.386Z,102262.38
2022-10-17T17:37:31.956Z,102273.63
2022-10-17T17:39:59.404Z,102269.13
2022-10-17T17:42:26.865Z,102271.09
2022-10-17T17:44:53.933Z,102266.03
2022-10-17T17:47:21.277Z,102285.66
2022-10-17T17:49:48.657Z,102277.78
2022-10-17T17:52:16.243Z,102269.63
2022-10-17T17:54:44.631Z,102285.88
2022-10-17T17:57:12.845Z,102278.00
2022-10-17T17:59:41.591Z,102284.75
2022-10-17T18:02:10.701Z,102283.34
2022-10-17T18:04:38.124Z,102281.66
2022-10-17T18:07:06.359Z,102286.69
2022-10-17T18:09:33.651Z,102280.50
2022-10-17T18:12:00.774Z,102283.56
2022-10-17T18:14:28.219Z,102278.22
2022-10-17T18:16:55.335Z,102280.44
2022-10-17T18:19:24.021Z,102290.53
2022-10-17T18:21:51.417Z,102300.31
2022-10-17T18:24:18.819Z,102294.66
2022-10-17T18:26:45.897Z,102298.00
2022-10-17T18:29:13.579Z,102297.94
2022-10-17T18:31:41.033Z,102311.09
2022-10-17T18:34:08.125Z,102294.22
2022-10-17T18:36:37.294Z,102301.84
2022-10-17T18:39:05.621Z,102285.81
2022-10-17T18:41:34.000Z,102292.53
2022-10-17T18:44:03.136Z,102293.69
2022-10-17T18:46:36.530Z,102295.06
2022-10-17T18:49:03.806Z,102274.63
2022-10-17T18:51:31.118Z,102278.66
2022-10-17T18:53:58.925Z,102285.38
2022-10-17T18:56:27.024Z,102288.16
2022-10-17T18:58:54.876Z,102289.59
2022-10-17T19:01:24.983Z,102285.38
2022-10-17T19:03:54.532Z,102287.31
2022-10-17T19:06:32.047Z,102266.63
2022-10-17T19:09:03.376Z,102265.50
2022-10-17T19:11:32.147Z,102257.66
2022-10-17T19:14:03.263Z,102268.66
2022-10-17T19:16:34.408Z,102258.00
2022-10-17T19:19:25.102Z,102268.16
2022-10-17T19:21:53.155Z,102273.72
2022-10-17T19:24:22.810Z,102261.06
2022-10-17T19:26:53.567Z,102261.38
2022-10-17T19:29:22.360Z,102266.97
2022-10-17T19:31:49.967Z,102248.16
2022-10-17T19:34:18.344Z,102251.72
2022-10-17T19:36:45.575Z,102269.41
2022-10-17T19:39:19.146Z,102270.22
2022-10-17T19:41:48.354Z,102278.53
2022-10-17T19:44:16.546Z,102265.28
2022-10-17T19:46:49.227Z,102278.44
2022-10-17T19:49:17.134Z,102269.16
2022-10-17T19:51:44.870Z,102254.31
2022-10-17T19:54:13.029Z,102272.28
2022-10-17T19:56:41.539Z,102260.16
2022-10-17T19:59:13.293Z,102275.28
2022-10-17T20:01:40.926Z,102267.41
2022-10-17T20:04:10.908Z,102283.97
2022-10-17T20:06:39.034Z,102278.53
2022-10-17T20:09:08.806Z,102290.53
2022-10-17T20:11:38.338Z,102289.66
2022-10-17T20:14:06.843Z,102300.25
2022-10-17T20:16:35.607Z,102303.59
2022-10-17T20:19:06.177Z,102310.22
2022-10-17T20:21:37.532Z,102294.16
2022-10-17T20:24:08.628Z,102317.09
2022-10-17T20:26:38.538Z,102302.75
2022-10-17T20:29:11.613Z,102287.84
2022-10-17T20:31:40.647Z,102298.53
2022-10-17T20:34:07.939Z,102292.03
2022-10-17T20:36:37.651Z,102292.88
2022-10-17T20:39:05.656Z,102264.81
2022-10-17T20:41:33.398Z,102263.13
2022-10-17T20:44:00.725Z,102257.03
2022-10-17T20:49:18.325Z,102276.81
2022-10-17T20:51:48.956Z,102254.66
2022-10-17T20:54:16.321Z,102245.41
2022-10-17T20:56:43.751Z,102254.38
2022-10-17T20:59:13.746Z,102249.91
2022-10-17T21:01:41.328Z,102253.53
2022-10-17T21:04:40.339Z,102237.63
2022-10-17T21:06:57.583Z,102236.78
2022-10-17T21:09:25.525Z,102237.41
2022-10-17T21:11:57.815Z,102253.00
2022-10-17T21:14:25.959Z,102252.16
2022-10-17T21:16:53.466Z,102259.97
2022-10-17T21:19:22.064Z,102261.06
2022-10-17T21:21:49.349Z,102256.59
2022-10-17T21:24:19.336Z,102261.84
2022-10-17T21:26:50.460Z,102262.81
2022-10-17T21:29:17.773Z,102267.75
2022-10-17T21:31:47.430Z,102266.28
2022-10-17T21:34:21.479Z,102257.78
2022-10-17T21:36:49.447Z,102244.16
2022-10-17T21:39:24.311Z,102251.94
2022-10-17T21:41:52.736Z,102256.44
2022-10-17T21:44:26.123Z,102264.72
2022-10-17T21:46:54.354Z,102240.50
2022-10-17T21:49:23.857Z,102257.81
2022-10-17T21:51:52.339Z,102260.03
2022-10-17T21:54:20.903Z,102262.47
2022-10-17T21:56:48.143Z,102261.25
2022-10-17T21:59:15.803Z,102257.88
2022-10-17T22:01:45.011Z,102260.75
2022-10-17T22:04:17.812Z,102249.84
2022-10-17T22:06:48.370Z,102238.78
2022-10-17T22:09:22.015Z,102236.25
2022-10-17T22:11:53.038Z,102254.16
2022-10-17T22:14:25.207Z,102244.34
2022-10-17T22:16:52.677Z,102238.44
2022-10-17T22:19:26.762Z,102241.56
2022-10-17T22:21:54.936Z,102235.66
2022-10-17T22:24:23.129Z,102212.63
2022-10-17T22:26:51.541Z,102240.13
2022-10-17T22:29:19.350Z,102228.25
2022-10-17T22:31:46.860Z,102232.13
2022-10-17T22:34:16.805Z,102248.78
2022-10-17T22:36:44.622Z,102265.03
2022-10-17T22:39:11.861Z,102253.28
2022-10-17T22:41:39.138Z,102253.28
2022-10-17T22:44:06.626Z,102250.22
2022-10-17T22:46:34.334Z,102261.63
2022-10-17T22:49:01.678Z,102247.56
2022-10-17T22:51:29.394Z,102259.28
2022-10-17T22:53:57.014Z,102222.13
2022-10-17T22:56:24.491Z,102255.59
2022-10-17T22:58:51.793Z,102242.06
2022-10-17T23:01:23.686Z,102242.41
2022-10-17T23:03:52.776Z,102247.38
2022-10-17T23:06:20.777Z,102251.78
2022-10-17T23:08:48.433Z,102257.25
2022-10-17T23:11:15.564Z,102244.25
2022-10-17T23:13:43.133Z,102250.94
2022-10-17T23:16:10.401Z,102254.38
2022-10-17T23:18:38.875Z,102263.59
2022-10-17T23:21:06.515Z,102263.03
2022-10-17T23:23:33.828Z,102239.28
2022-10-17T23:26:10.891Z,102232.38
2022-10-17T23:28:38.347Z,102239.03
2022-10-17T23:31:24.167Z,102245.25
2022-10-17T23:33:51.517Z,102238.69
2022-10-17T23:36:20.865Z,102244.25
2022-10-17T23:38:50.205Z,102241.97
2022-10-17T23:41:18.281Z,102243.06
2022-10-17T23:43:45.391Z,102226.16
2022-10-17T23:46:13.024Z,102241.03
2022-10-17T23:48:40.970Z,102231.44
2022-10-17T23:51:09.684Z,102217.56
2022-10-17T23:53:38.465Z,102226.69
2022-10-17T23:56:06.316Z,102217.41
2022-10-17T23:58:33.901Z,102242.31
